createdAt,value
2022-09-05T00:03:52.258Z,101943.31
2022-09-05T00:11:42.487Z,101937.66
2022-09-05T00:24:19.236Z,101936.34
2022-09-05T00:26:50.218Z,101934.63
2022-09-05T00:34:10.545Z,101939.75
2022-09-05T00:41:12.856Z,101956.25
2022-09-05T00:48:25.814Z,101955.38
2022-09-05T00:55:48.035Z,101957.53
2022-09-05T01:03:10.636Z,101965.25
2022-09-05T01:10:40.192Z,101962.09
2022-09-05T01:17:53.564Z,101972.44
2022-09-05T01:25:32.805Z,101966.00
2022-09-05T01:33:10.245Z,101975.03
2022-09-05T01:40:34.540Z,101974.56
2022-09-05T01:47:50.089Z,101959.81
2022-09-05T01:55:22.525Z,101980.41
2022-09-05T02:02:50.314Z,101982.94
2022-09-05T02:09:52.430Z,101988.41
2022-09-05T02:17:27.211Z,101985.81
2022-09-05T02:24:44.967Z,101990.59
2022-09-05T02:31:48.434Z,101992.66
2022-09-05T02:42:38.328Z,101985.38
2022-09-05T02:46:18.736Z,101986.72
2022-09-05T02:57:36.306Z,101993.56
2022-09-05T03:00:53.815Z,101999.97
2022-09-05T03:08:11.508Z,101997.22
2022-09-05T03:15:22.565Z,101991.03
2022-09-05T03:22:28.833Z,101983.84
2022-09-05T03:29:58.672Z,101982.38
2022-09-05T03:37:06.986Z,101986.31
2022-09-05T03:44:36.041Z,101980.38
2022-09-05T03:57:04.833Z,101985.50
2022-09-05T03:59:27.070Z,101984.03
2022-09-05T04:08:18.264Z,101983.16
2022-09-05T04:14:20.481Z,101991.13
2022-09-05T04:21:26.647Z,101989.88
2022-09-05T04:28:28.162Z,101997.53
2022-09-05T04:36:17.812Z,102002.28
2022-09-05T04:43:29.705Z,102006.94
2022-09-05T04:50:37.666Z,102009.06
2022-09-05T04:58:02.765Z,102009.19
2022-09-05T05:06:12.748Z,102008.78
2022-09-05T05:17:57.398Z,102011.59
2022-09-05T05:20:41.239Z,102016.88
2022-09-05T05:28:21.237Z,102035.53
2022-09-05T05:35:29.482Z,102025.22
2022-09-05T05:42:31.130Z,102041.19
2022-09-05T05:49:54.307Z,102038.06
2022-09-05T05:56:58.887Z,102033.78
2022-09-05T06:04:16.686Z,102035.56
2022-09-05T06:14:59.036Z,102038.66
2022-09-05T06:19:17.080Z,102041.81
2022-09-05T06:26:49.200Z,102042.59
2022-09-05T06:34:03.059Z,102050.75
2022-09-05T06:41:20.381Z,102041.72
2022-09-05T06:49:28.958Z,102050.94
2022-09-05T06:56:32.783Z,102061.16
2022-09-05T07:03:45.179Z,102057.53
2022-09-05T07:11:15.600Z,102070.69
2022-09-05T07:18:43.560Z,102075.69
2022-09-05T07:25:48.186Z,102078.31
2022-09-05T07:32:52.315Z,102071.66
2022-09-05T07:39:58.466Z,102069.59
2022-09-05T07:47:10.426Z,102069.81
2022-09-05T07:57:08.357Z,102073.94
2022-09-05T08:01:46.580Z,102073.38
2022-09-05T08:09:18.107Z,102075.81
2022-09-05T08:16:15.494Z,102068.19
2022-09-05T08:23:46.684Z,102066.81
2022-09-05T08:31:00.024Z,102069.75
2022-09-05T08:38:01.779Z,102066.41
2022-09-05T08:46:39.203Z,102054.28
2022-09-05T08:52:54.672Z,102035.03
2022-09-05T09:00:18.904Z,102030.75
2022-09-05T09:07:51.478Z,102023.63
2022-09-05T09:14:59.799Z,102019.06
2022-09-05T09:22:34.841Z,102011.41
2022-09-05T09:29:40.005Z,102020.94
2022-09-05T09:37:03.304Z,102021.41
2022-09-05T09:44:23.299Z,102020.25
2022-09-05T09:51:31.431Z,102012.28
2022-09-05T09:58:53.214Z,102001.19
2022-09-05T10:10:44.211Z,102006.59
2022-09-05T10:13:55.319Z,101996.47
2022-09-05T10:21:24.471Z,101988.06
2022-09-05T10:28:39.195Z,101973.16
2022-09-05T10:35:42.558Z,101974.47
2022-09-05T10:43:00.731Z,101959.47
2022-09-05T10:50:06.334Z,101952.06
2022-09-05T10:57:35.585Z,101948.81
2022-09-05T11:05:04.730Z,101940.47
2022-09-05T11:12:25.959Z,101919.28
2022-09-05T11:20:02.512Z,101911.63
2022-09-05T11:27:24.439Z,101911.84
2022-09-05T11:40:10.956Z,101911.34
2022-09-05T11:42:39.296Z,101911.09
2022-09-05T11:50:02.461Z,101904.13
2022-09-05T11:57:34.071Z,101890.00
2022-09-05T12:05:48.818Z,101900.00
2022-09-05T12:12:41.739Z,101895.66
2022-09-05T12:19:56.807Z,101891.16
2022-09-05T12:27:38.660Z,101887.81
2022-09-05T12:36:12.957Z,101875.25
2022-09-05T12:42:30.423Z,101869.00
2022-09-05T12:49:52.225Z,101856.75
2022-09-05T12:59:50.917Z,101858.75
2022-09-05T13:04:46.437Z,101856.75
2022-09-05T13:14:49.267Z,101847.31
2022-09-05T13:19:37.775Z,101842.44
2022-09-05T13:26:43.091Z,101839.56
2022-09-05T13:37:59.736Z,101843.53
2022-09-05T13:41:27.200Z,101829.47
2022-09-05T13:56:23.751Z,101830.03
2022-09-05T14:03:37.961Z,101824.66
2022-09-05T14:10:55.362Z,101825.34
2022-09-05T14:18:26.714Z,101813.50
2022-09-05T14:25:29.255Z,101812.56
2022-09-05T14:37:36.273Z,101804.59
2022-09-05T14:41:04.029Z,101804.47
2022-09-05T14:48:18.391Z,101799.91
2022-09-05T14:55:20.953Z,101795.34
2022-09-05T15:02:51.985Z,101794.13
2022-09-05T15:12:19.690Z,101790.03
2022-09-05T15:17:50.271Z,101784.06
2022-09-05T15:25:18.148Z,101773.94
2022-09-05T15:32:24.769Z,101775.78
2022-09-05T15:39:28.224Z,101762.41
2022-09-05T15:46:46.619Z,101778.56
2022-09-05T15:53:48.270Z,101766.16
2022-09-05T16:00:51.913Z,101766.69
2022-09-05T16:10:40.246Z,101766.28
2022-09-05T16:22:01.248Z,101769.44
2022-09-05T16:23:39.343Z,101765.00
2022-09-05T16:30:39.242Z,101773.56
2022-09-05T16:37:50.335Z,101770.97
2022-09-05T16:45:17.186Z,101759.69
2022-09-05T16:52:18.781Z,101761.97
2022-09-05T16:59:22.337Z,101760.34
2022-09-05T17:06:26.038Z,101774.59
2022-09-05T17:13:31.206Z,101774.44
2022-09-05T17:20:35.647Z,101763.97
2022-09-05T17:29:36.091Z,101767.94
2022-09-05T17:35:16.616Z,101758.69
2022-09-05T17:42:20.049Z,101771.25
2022-09-05T17:49:40.379Z,101777.91
2022-09-05T17:56:43.197Z,101784.56
2022-09-05T18:03:45.833Z,101799.56
2022-09-05T18:11:02.044Z,101806.72
2022-09-05T18:18:35.431Z,101813.16
2022-09-05T18:25:53.639Z,101808.38
2022-09-05T18:33:55.883Z,101807.66
2022-09-05T18:40:57.747Z,101808.69
2022-09-05T18:48:00.394Z,101815.22
2022-09-05T18:55:34.035Z,101813.72
2022-09-05T19:02:51.248Z,101818.66
2022-09-05T19:10:35.024Z,101806.31
2022-09-05T19:17:45.321Z,101796.59
2022-09-05T19:24:48.807Z,101811.56
2022-09-05T19:37:13.244Z,101808.94
2022-09-05T19:42:54.228Z,101797.47
2022-09-05T19:47:35.045Z,101798.25
2022-09-05T19:54:04.852Z,101820.00
2022-09-05T20:01:08.361Z,101804.47
2022-09-05T20:08:29.467Z,101807.19
2022-09-05T20:15:36.258Z,101804.78
2022-09-05T20:22:49.265Z,101801.63
2022-09-05T20:29:55.904Z,101808.00
2022-09-05T20:43:26.513Z,101802.72
2022-09-05T20:44:41.241Z,101802.28
2022-09-05T20:54:14.522Z,101806.22
2022-09-05T20:59:12.597Z,101805.13
2022-09-05T21:06:25.651Z,101810.97
2022-09-05T21:13:36.842Z,101803.16
2022-09-05T21:21:00.884Z,101807.03
2022-09-05T21:28:06.976Z,101807.19
2022-09-05T21:35:33.516Z,101800.44
2022-09-05T21:47:27.468Z,101792.25
2022-09-05T21:49:55.914Z,101798.47
2022-09-05T21:59:28.694Z,101784.94
2022-09-05T22:04:25.337Z,101784.94
2022-09-05T22:11:27.021Z,101792.22
2022-09-05T22:18:29.116Z,101796.44
2022-09-05T22:25:32.130Z,101788.38
2022-09-05T22:32:35.176Z,101781.13
2022-09-05T22:39:38.126Z,101780.22
2022-09-05T22:46:39.973Z,101782.94
2022-09-05T22:53:41.621Z,101787.16
2022-09-05T23:00:44.733Z,101763.50
2022-09-05T23:07:46.681Z,101769.88
2022-09-05T23:14:48.274Z,101772.09
2022-09-05T23:21:49.917Z,101767.81
2022-09-05T23:28:51.523Z,101772.66
2022-09-05T23:35:53.137Z,101767.41
2022-09-05T23:42:55.788Z,101759.75
2022-09-05T23:49:57.421Z,101753.75
2022-09-05T23:56:59.029Z,101749.63
